Time;durP1;ratioP1;P1;durP2;ratioP2;P2;SDS_P1;SDS_P2;PMS_P1;PMS_P2;Temp;Humidity;BMP_temperature;BMP_pressure;BME280_temperature;BME280_humidity;BME280_pressure;Samples;Min_cycle;Max_cycle;Signal;HPM_P1;HPM_P2
2023/09/15 00:01:39;;;;;;;3.83;3.53;;;20.80;79.10;19.90;96779.00;;;;5089358;28;20681;-79
2023/09/15 00:04:08;;;;;;;3.97;3.40;;;20.80;79.10;19.90;96780.00;;;;5086359;28;20710;-79
2023/09/15 00:06:36;;;;;;;3.90;3.60;;;20.80;79.00;19.90;96774.00;;;;5086646;28;20699;-79
2023/09/15 00:09:06;;;;;;;3.80;3.50;;;20.80;78.90;19.90;96776.00;;;;5087005;28;20226;-79
2023/09/15 00:11:40;;;;;;;3.60;3.30;;;20.80;78.90;19.90;96769.00;;;;5083120;28;20200;-79
2023/09/15 00:14:10;;;;;;;3.60;3.30;;;20.70;78.80;19.80;96778.00;;;;5088790;28;20191;-79
2023/09/15 00:16:39;;;;;;;3.73;3.43;;;20.70;79.60;19.80;96769.00;;;;5082308;28;20215;-79
2023/09/15 00:19:07;;;;;;;4.47;3.87;;;20.70;78.70;19.80;96775.00;;;;5084194;28;20205;-79
2023/09/15 00:21:35;;;;;;;5.40;3.80;;;20.60;78.50;19.70;96776.00;;;;5094576;28;20204;-79
2023/09/15 00:24:05;;;;;;;3.40;3.20;;;20.60;78.50;19.70;96767.00;;;;5094151;28;20210;-79
2023/09/15 00:26:34;;;;;;;3.80;3.50;;;20.60;78.50;19.70;96766.00;;;;5089364;28;20834;-79
2023/09/15 00:29:02;;;;;;;3.60;3.30;;;20.60;78.40;19.60;96767.00;;;;5088885;28;20233;-79
2023/09/15 00:31:30;;;;;;;3.90;3.20;;;20.50;78.30;19.60;96757.00;;;;5090217;28;20276;-79
2023/09/15 00:33:57;;;;;;;4.20;3.60;;;20.50;78.30;19.60;96760.00;;;;5092632;28;20192;-79
2023/09/15 00:36:24;;;;;;;4.23;3.63;;;20.40;78.30;19.50;96763.00;;;;5082415;28;20601;-79
2023/09/15 00:38:51;;;;;;;4.50;4.10;;;20.40;78.30;19.50;96765.00;;;;5084765;28;20220;-79
2023/09/15 00:41:19;;;;;;;4.10;3.70;;;20.40;79.10;19.50;96759.00;;;;5088561;28;20199;-79
2023/09/15 00:43:48;;;;;;;3.73;3.43;;;20.30;78.40;19.40;96761.00;;;;5092191;28;20282;-79
2023/09/15 00:46:15;;;;;;;4.20;3.87;;;20.30;78.50;19.40;96756.00;;;;5096330;28;20212;-79
2023/09/15 00:48:45;;;;;;;4.03;3.73;;;20.30;78.60;19.40;96756.00;;;;5093438;28;20280;-79
2023/09/15 00:51:12;;;;;;;4.63;4.20;;;20.30;78.70;19.30;96759.00;;;;5088046;28;20222;-79
2023/09/15 00:53:41;;;;;;;4.10;3.80;;;20.20;78.70;19.30;96751.00;;;;5091496;28;20188;-79
2023/09/15 00:56:10;;;;;;;4.13;3.77;;;20.20;78.90;19.30;96751.00;;;;5094485;28;20223;-79
2023/09/15 00:58:40;;;;;;;4.53;4.17;;;20.20;79.00;19.30;96746.00;;;;5087213;28;20212;-79
2023/09/15 01:01:09;;;;;;;4.70;4.23;;;20.20;79.10;19.30;96741.00;;;;5089632;28;20769;-79
2023/09/15 01:03:42;;;;;;;4.67;4.23;;;20.20;78.90;19.20;96739.00;;;;5093131;28;20197;-79
2023/09/15 01:06:11;;;;;;;4.33;4.00;;;20.20;78.90;19.20;96736.00;;;;5085180;28;20945;-79
2023/09/15 01:08:39;;;;;;;4.20;3.80;;;20.10;79.00;19.20;96745.00;;;;5088972;28;20202;-79
2023/09/15 01:11:06;;;;;;;4.57;4.17;;;20.10;79.10;19.20;96736.00;;;;5092605;28;20240;-79
2023/09/15 01:13:35;;;;;;;4.20;3.90;;;20.10;79.10;19.20;96741.00;;;;5089533;28;20198;-78
2023/09/15 01:16:13;;;;;;;4.20;3.80;;;20.10;79.30;19.10;96733.00;;;;5086754;28;20585;-79
2023/09/15 01:18:54;;;;;;;4.03;3.73;;;20.00;79.30;19.20;96744.00;;;;5089751;28;20196;-79
2023/09/15 01:22:20;;;;;;;4.10;3.80;;;20.00;80.10;19.10;96735.00;;;;5089742;28;20683;-79
2023/09/15 01:25:24;;;;;;;3.97;3.67;;;20.00;79.10;19.10;96739.00;;;;5070719;28;20207;-79
2023/09/15 01:28:20;;;;;;;4.10;3.80;;;20.00;79.20;19.10;96739.00;;;;5090522;28;20194;-79
2023/09/15 01:30:51;;;;;;;3.93;3.63;;;20.00;79.20;19.10;96734.00;;;;5087949;28;20223;-79
2023/09/15 01:33:20;;;;;;;3.93;3.67;;;20.00;80.00;19.10;96735.00;;;;5092699;28;20202;-78
2023/09/15 01:35:49;;;;;;;4.13;3.83;;;20.00;79.40;19.10;96731.00;;;;5093395;28;20213;-79
2023/09/15 01:38:16;;;;;;;4.00;3.70;;;20.00;79.50;19.10;96732.00;;;;5083808;28;20730;-79
2023/09/15 01:40:43;;;;;;;4.13;3.83;;;20.00;79.40;19.10;96739.00;;;;5087962;28;20570;-79
2023/09/15 01:43:10;;;;;;;4.20;3.80;;;20.00;79.50;19.10;96736.00;;;;5091690;28;20323;-79
2023/09/15 01:45:37;;;;;;;3.60;3.30;;;20.00;79.50;19.10;96733.00;;;;5081713;28;20213;-79
2023/09/15 01:48:08;;;;;;;3.90;3.60;;;20.00;79.50;19.10;96734.00;;;;5089025;28;20276;-78
2023/09/15 01:50:38;;;;;;;3.80;3.50;;;20.00;79.40;19.10;96726.00;;;;5084909;28;20580;-79
2023/09/15 01:53:05;;;;;;;4.27;3.97;;;19.90;79.50;19.10;96735.00;;;;5087396;28;20633;-79
2023/09/15 01:55:34;;;;;;;3.70;3.40;;;19.90;79.50;19.00;96728.00;;;;5087526;28;20242;-79
2023/09/15 01:58:02;;;;;;;4.50;3.43;;;19.90;79.40;19.00;96727.00;;;;5092246;28;20196;-79
2023/09/15 02:00:36;;;;;;;3.53;3.23;;;19.90;79.50;19.00;96730.00;;;;5090607;28;20200;-79
2023/09/15 02:03:07;;;;;;;3.50;3.20;;;19.90;79.30;19.00;96724.00;;;;5085079;28;20193;-79
2023/09/15 02:05:34;;;;;;;4.33;3.93;;;19.90;79.50;19.00;96727.00;;;;5083474;28;20246;-78
2023/09/15 02:08:01;;;;;;;3.80;3.50;;;19.90;79.40;19.00;96725.00;;;;5091479;28;20215;-78
2023/09/15 02:10:29;;;;;;;4.00;3.70;;;19.90;79.50;19.00;96722.00;;;;5091501;28;20592;-79
2023/09/15 02:12:56;;;;;;;4.67;4.27;;;19.80;79.40;19.00;96722.00;;;;5071927;28;20221;-79
2023/09/15 02:15:25;;;;;;;4.30;3.83;;;19.80;79.40;18.90;96722.00;;;;5084638;28;20723;-78
2023/09/15 02:17:52;;;;;;;4.33;3.93;;;19.80;79.40;18.90;96718.00;;;;5083453;28;20192;-78
2023/09/15 02:20:22;;;;;;;4.17;3.87;;;19.80;79.40;18.90;96713.00;;;;5089187;28;20202;-79
2023/09/15 02:22:49;;;;;;;4.53;3.90;;;19.80;79.30;18.90;96711.00;;;;5094444;28;20196;-78
2023/09/15 02:25:17;;;;;;;5.20;3.90;;;19.80;79.40;18.90;96716.00;;;;5086339;28;20211;-78
2023/09/15 02:27:44;;;;;;;4.43;4.03;;;19.70;79.30;18.90;96712.00;;;;5081750;28;20281;-79
2023/09/15 02:30:12;;;;;;;4.47;4.17;;;19.80;79.40;18.80;96709.00;;;;5089730;28;20229;-79
2023/09/15 02:32:39;;;;;;;4.40;4.00;;;19.80;79.40;18.80;96710.00;;;;5082968;28;20283;-79
2023/09/15 02:35:08;;;;;;;4.90;4.50;;;19.70;79.40;18.80;96701.00;;;;5085585;28;20191;-79
2023/09/15 02:37:37;;;;;;;4.10;3.70;;;19.70;79.40;18.80;96707.00;;;;5074803;28;20207;-78
2023/09/15 02:40:06;;;;;;;4.90;4.50;;;19.70;79.30;18.80;96696.00;;;;5086355;28;20882;-79
2023/09/15 02:42:35;;;;;;;4.97;4.57;;;19.70;79.50;18.80;96701.00;;;;5087935;28;20191;-78
2023/09/15 02:45:03;;;;;;;4.77;4.37;;;19.70;79.50;18.80;96700.00;;;;5085728;28;20581;-79
2023/09/15 02:47:30;;;;;;;4.00;3.60;;;19.70;79.60;18.80;96699.00;;;;5092194;28;20657;-79
2023/09/15 02:49:57;;;;;;;3.73;3.47;;;19.70;79.70;18.70;96698.00;;;;5090310;28;20220;-78
2023/09/15 02:52:25;;;;;;;4.70;4.33;;;19.60;79.60;18.70;96706.00;;;;5087209;28;20805;-79
2023/09/15 02:54:53;;;;;;;5.83;4.33;;;19.60;79.60;18.70;96703.00;;;;5090427;28;20712;-79
2023/09/15 02:57:20;;;;;;;4.23;3.73;;;19.60;79.50;18.70;96705.00;;;;5091321;28;20255;-78
2023/09/15 02:59:47;;;;;;;5.03;4.63;;;19.60;79.50;18.70;96704.00;;;;5090453;28;20278;-78
2023/09/15 03:02:16;;;;;;;5.87;4.43;;;19.60;79.50;18.70;96697.00;;;;5086214;28;20232;-78
2023/09/15 03:04:46;;;;;;;4.20;3.90;;;19.60;79.60;18.70;96701.00;;;;5086725;28;20278;-78
2023/09/15 03:07:13;;;;;;;4.40;4.10;;;19.60;79.50;18.70;96701.00;;;;5091392;28;20214;-79
2023/09/15 03:09:41;;;;;;;4.77;4.27;;;19.60;79.60;18.70;96701.00;;;;5087190;28;20225;-78
2023/09/15 03:12:09;;;;;;;4.63;4.23;;;19.60;80.30;18.60;96703.00;;;;5088216;28;20570;-79
2023/09/15 03:14:39;;;;;;;4.40;4.00;;;19.60;79.40;18.60;96703.00;;;;5074269;28;20664;-78
2023/09/15 03:17:07;;;;;;;4.90;4.50;;;19.60;79.50;18.60;96699.00;;;;5090223;28;20219;-78
2023/09/15 03:19:35;;;;;;;4.67;4.30;;;19.50;79.40;18.60;96709.00;;;;5081536;28;20599;-78
2023/09/15 03:22:02;;;;;;;4.83;4.43;;;19.60;79.60;18.60;96710.00;;;;5078303;28;20266;-79
2023/09/15 03:24:29;;;;;;;4.97;4.57;;;19.50;79.70;18.60;96705.00;;;;5063423;28;20274;-78
2023/09/15 03:26:57;;;;;;;5.13;4.73;;;19.50;80.00;18.60;96707.00;;;;5091486;28;20241;-78
2023/09/15 03:29:25;;;;;;;4.83;4.37;;;19.50;80.20;18.60;96701.00;;;;5079716;28;20192;-78
2023/09/15 03:31:52;;;;;;;5.60;5.10;;;19.50;81.10;18.70;96705.00;;;;5084704;28;20596;-78
2023/09/15 03:34:19;;;;;;;5.77;5.27;;;19.50;80.70;18.70;96704.00;;;;5078849;28;20202;-78
2023/09/15 03:36:47;;;;;;;4.87;4.57;;;19.50;80.80;18.70;96701.00;;;;5078868;28;20212;-79
2023/09/15 03:39:14;;;;;;;6.00;5.43;;;19.60;81.10;18.80;96701.00;;;;5091761;28;20284;-79
2023/09/15 03:41:43;;;;;;;5.30;4.80;;;19.60;81.90;18.80;96708.00;;;;5081941;28;20572;-79
2023/09/15 03:44:10;;;;;;;6.63;5.10;;;19.60;81.30;18.80;96713.00;;;;5086032;28;20200;-78
2023/09/15 03:46:39;;;;;;;6.33;5.40;;;19.60;81.50;18.90;96707.00;;;;5091717;28;20208;-78
2023/09/15 03:49:06;;;;;;;5.73;5.23;;;19.60;81.50;18.90;96704.00;;;;5091154;28;20540;-79
2023/09/15 03:51:33;;;;;;;5.37;4.87;;;19.70;81.60;18.90;96709.00;;;;5088511;28;20220;-78
2023/09/15 03:54:00;;;;;;;5.90;5.33;;;19.70;81.70;19.00;96709.00;;;;5083595;28;20188;-78
2023/09/15 03:56:28;;;;;;;5.93;5.43;;;19.70;81.80;19.00;96700.00;;;;5102930;28;20604;-78
2023/09/15 03:58:56;;;;;;;5.57;5.13;;;19.80;81.90;19.10;96705.00;;;;5080768;28;20205;-78
2023/09/15 04:01:23;;;;;;;5.70;5.20;;;19.80;81.80;19.10;96710.00;;;;5089826;28;20208;-79
2023/09/15 04:03:52;;;;;;;5.60;5.10;;;19.90;81.90;19.10;96703.00;;;;5083674;28;20221;-78
2023/09/15 04:06:19;;;;;;;6.40;5.80;;;19.90;81.90;19.20;96706.00;;;;5086909;28;20217;-78
2023/09/15 04:08:47;;;;;;;6.10;5.60;;;19.90;81.90;19.20;96702.00;;;;5085297;28;20227;-78
2023/09/15 04:11:14;;;;;;;6.47;5.67;;;19.90;81.90;19.20;96700.00;;;;5091412;28;20223;-78
2023/09/15 04:13:41;;;;;;;6.63;5.93;;;20.00;82.00;19.30;96706.00;;;;5089519;28;20200;-78
2023/09/15 04:16:09;;;;;;;6.93;6.27;;;20.00;82.00;19.30;96697.00;;;;5091293;28;20225;-78
2023/09/15 04:18:36;;;;;;;7.77;6.97;;;20.10;82.10;19.30;96696.00;;;;5090220;28;20652;-78
2023/09/15 04:21:04;;;;;;;7.30;6.70;;;20.10;82.10;19.40;96702.00;;;;5095472;28;20200;-79
2023/09/15 04:23:31;;;;;;;8.00;7.30;;;20.10;82.10;19.40;96698.00;;;;5090489;28;20195;-78
2023/09/15 04:25:59;;;;;;;7.27;6.67;;;20.20;82.20;19.40;96701.00;;;;5092932;28;20298;-78
2023/09/15 04:28:26;;;;;;;8.17;7.23;;;20.20;82.00;19.40;96702.00;;;;5092664;28;20203;-78
2023/09/15 04:30:54;;;;;;;7.20;6.50;;;20.20;82.00;19.50;96701.00;;;;5085197;28;20221;-78
2023/09/15 04:33:21;;;;;;;7.97;7.23;;;20.20;82.00;19.50;96704.00;;;;5093511;28;20194;-79
2023/09/15 04:35:48;;;;;;;7.93;7.23;;;20.30;82.00;19.50;96701.00;;;;5094444;28;20584;-78
2023/09/15 04:38:18;;;;;;;9.00;8.13;;;20.30;82.00;19.60;96703.00;;;;5076825;28;20200;-79
2023/09/15 04:40:45;;;;;;;9.13;7.97;;;20.30;82.00;19.60;96701.00;;;;5089766;28;20196;-79
2023/09/15 04:43:16;;;;;;;10.57;8.50;;;20.40;82.20;19.60;96702.00;;;;5088024;28;20191;-79
2023/09/15 04:45:44;;;;;;;8.87;8.03;;;20.40;82.20;19.70;96704.00;;;;5088492;28;20226;-79
2023/09/15 04:48:11;;;;;;;9.23;8.03;;;20.40;82.10;19.70;96703.00;;;;5090113;28;20682;-79
2023/09/15 04:50:38;;;;;;;9.33;7.63;;;20.40;82.00;19.70;96703.00;;;;5080254;28;20722;-79
2023/09/15 04:53:07;;;;;;;8.20;7.27;;;20.50;82.10;19.80;96703.00;;;;5088244;28;20656;-79
2023/09/15 04:55:35;;;;;;;7.70;6.97;;;20.50;82.00;19.80;96702.00;;;;5092404;28;20233;-79
2023/09/15 04:58:03;;;;;;;7.83;7.17;;;20.50;82.10;19.80;96697.00;;;;5094524;28;20209;-77
2023/09/15 05:00:34;;;;;;;6.80;6.20;;;20.60;82.10;19.80;96702.00;;;;5089187;28;20202;-77
2023/09/15 05:03:02;;;;;;;7.23;6.47;;;20.60;82.00;19.90;96700.00;;;;5094872;28;20198;-77
2023/09/15 05:05:30;;;;;;;7.60;6.90;;;20.60;82.10;19.90;96697.00;;;;5094373;28;20222;-77
2023/09/15 05:07:57;;;;;;;8.17;7.27;;;20.60;82.10;19.90;96701.00;;;;5094543;28;20237;-78
2023/09/15 05:10:24;;;;;;;7.60;6.50;;;20.60;82.00;19.90;96700.00;;;;5083806;28;20670;-77
2023/09/15 05:12:52;;;;;;;7.30;6.57;;;20.70;82.00;20.00;96693.00;;;;5088537;28;20200;-78
2023/09/15 05:15:19;;;;;;;7.50;6.80;;;20.70;82.00;20.00;96695.00;;;;5093514;28;20214;-78
2023/09/15 05:17:47;;;;;;;7.80;6.80;;;20.70;81.80;20.00;96696.00;;;;5092383;28;20207;-78
2023/09/15 05:20:14;;;;;;;7.47;6.77;;;20.70;81.80;20.00;96700.00;;;;5089144;28;20195;-78
2023/09/15 05:22:41;;;;;;;8.17;7.43;;;20.70;81.70;20.00;96708.00;;;;5089263;28;20570;-78
2023/09/15 05:25:08;;;;;;;7.87;7.07;;;20.80;81.70;20.00;96701.00;;;;5087735;28;20187;-78
2023/09/15 05:27:35;;;;;;;7.23;6.63;;;20.80;81.70;20.10;96704.00;;;;5088800;28;20204;-77
2023/09/15 05:30:05;;;;;;;8.13;6.93;;;20.80;81.70;20.10;96701.00;;;;5092319;28;20195;-77
2023/09/15 05:32:33;;;;;;;8.50;7.70;;;20.80;81.70;20.10;96709.00;;;;5086922;28;20596;-78
2023/09/15 05:35:00;;;;;;;7.73;7.00;;;20.80;81.70;20.10;96708.00;;;;5087452;28;20283;-78
2023/09/15 05:37:27;;;;;;;8.20;7.43;;;20.80;81.70;20.10;96709.00;;;;5085716;28;20194;-77
2023/09/15 05:39:56;;;;;;;9.60;7.37;;;20.90;81.60;20.10;96707.00;;;;5089945;28;20192;-78
2023/09/15 05:42:23;;;;;;;8.50;7.60;;;20.90;81.50;20.20;96708.00;;;;5081395;28;20316;-78
2023/09/15 05:44:54;;;;;;;8.10;7.30;;;20.90;81.50;20.20;96713.00;;;;5078471;28;20202;-77
2023/09/15 05:47:22;;;;;;;8.93;8.03;;;20.90;81.40;20.20;96714.00;;;;5084544;28;20214;-78
2023/09/15 05:49:50;;;;;;;7.77;7.07;;;20.90;82.00;20.20;96713.00;;;;5089550;28;20191;-78
2023/09/15 05:52:17;;;;;;;7.90;7.10;;;20.90;81.50;20.20;96716.00;;;;5087213;28;20259;-78
2023/09/15 05:54:44;;;;;;;7.97;7.27;;;21.00;81.30;20.20;96722.00;;;;5094819;28;20206;-78
2023/09/15 05:57:11;;;;;;;8.17;7.43;;;21.00;81.40;20.20;96723.00;;;;5093818;28;20221;-78
2023/09/15 05:59:38;;;;;;;8.00;7.23;;;21.00;81.40;20.30;96709.00;;;;5091471;28;20196;-79
2023/09/15 06:02:07;;;;;;;8.13;7.43;;;21.00;81.30;20.30;96712.00;;;;5090487;28;20306;-78
2023/09/15 06:04:35;;;;;;;7.77;7.10;;;21.00;81.30;20.30;96712.00;;;;5096554;28;20201;-79
2023/09/15 06:07:02;;;;;;;8.77;7.97;;;21.00;81.20;20.30;96713.00;;;;5091420;28;20712;-78
2023/09/15 06:09:29;;;;;;;7.67;7.07;;;21.00;81.30;20.30;96715.00;;;;5091443;28;20188;-78
2023/09/15 06:11:56;;;;;;;7.87;7.13;;;21.00;81.30;20.40;96707.00;;;;5085518;28;20956;-77
2023/09/15 06:14:24;;;;;;;8.10;7.40;;;21.10;81.40;20.40;96708.00;;;;5081609;28;20205;-78
2023/09/15 06:16:51;;;;;;;9.00;8.20;;;21.10;81.90;20.40;96712.00;;;;5089908;28;20215;-78
2023/09/15 06:19:18;;;;;;;8.17;7.37;;;21.10;81.30;20.40;96707.00;;;;5085074;28;20564;-78
2023/09/15 06:21:47;;;;;;;8.80;7.90;;;21.10;81.40;20.40;96704.00;;;;5087991;28;20215;-77
2023/09/15 06:24:14;;;;;;;9.97;7.87;;;21.10;81.40;20.40;96700.00;;;;5090455;28;20198;-78
2023/09/15 06:26:41;;;;;;;7.20;6.50;;;21.10;81.40;20.50;96702.00;;;;5085309;28;20219;-78
2023/09/15 06:29:08;;;;;;;7.70;7.00;;;21.20;81.40;20.50;96703.00;;;;5088804;28;20198;-78
2023/09/15 06:31:36;;;;;;;7.57;6.97;;;21.20;81.40;20.50;96709.00;;;;5092231;28;20696;-78
2023/09/15 06:34:04;;;;;;;8.40;7.70;;;21.20;81.30;20.50;96705.00;;;;5083879;28;20213;-78
2023/09/15 06:36:31;;;;;;;7.97;7.17;;;21.20;81.30;20.50;96707.00;;;;5084009;28;20216;-78
2023/09/15 06:39:00;;;;;;;7.43;6.73;;;21.20;82.00;20.50;96708.00;;;;5083532;28;20218;-78
2023/09/15 06:41:27;;;;;;;7.27;6.60;;;21.20;81.20;20.50;96707.00;;;;5085409;28;20568;-78
2023/09/15 06:43:54;;;;;;;7.97;7.17;;;21.20;81.30;20.60;96707.00;;;;5090940;28;20223;-78
2023/09/15 06:46:22;;;;;;;8.87;7.97;;;21.30;81.40;20.60;96707.00;;;;5087465;28;20219;-78
2023/09/15 06:48:50;;;;;;;8.03;7.30;;;21.30;81.40;20.60;96704.00;;;;5087522;28;20192;-78
2023/09/15 06:51:17;;;;;;;7.73;7.07;;;21.30;82.00;20.60;96705.00;;;;5087464;28;20258;-78
2023/09/15 06:53:45;;;;;;;8.33;7.63;;;21.30;81.30;20.60;96703.00;;;;5068931;28;20188;-78
2023/09/15 06:56:13;;;;;;;8.63;7.83;;;21.30;81.20;20.60;96708.00;;;;5086977;28;20217;-78
2023/09/15 06:58:40;;;;;;;8.83;8.03;;;21.30;81.10;20.70;96701.00;;;;5083486;28;20553;-78
2023/09/15 07:01:08;;;;;;;8.33;7.53;;;21.40;81.20;20.70;96703.00;;;;5087154;28;20282;-78
2023/09/15 07:03:35;;;;;;;7.83;7.13;;;21.40;81.80;20.70;96707.00;;;;5090407;28;20199;-78
2023/09/15 07:06:03;;;;;;;8.10;7.33;;;21.40;81.10;20.70;96713.00;;;;5088344;28;20222;-78
2023/09/15 07:08:30;;;;;;;8.33;7.63;;;21.40;81.10;20.70;96701.00;;;;5090476;28;20206;-78
2023/09/15 07:10:57;;;;;;;7.93;7.23;;;21.40;81.10;20.80;96698.00;;;;5089955;28;20268;-78
2023/09/15 07:13:26;;;;;;;8.50;7.70;;;21.40;81.10;20.80;96705.00;;;;5088468;28;20286;-78
2023/09/15 07:15:53;;;;;;;7.80;7.10;;;21.50;80.60;20.80;96705.00;;;;5081457;28;20704;-78
2023/09/15 07:18:20;;;;;;;8.10;7.30;;;21.50;80.20;20.80;96698.00;;;;5091640;28;20285;-78
2023/09/15 07:20:47;;;;;;;8.03;7.23;;;21.50;80.20;20.80;96700.00;;;;5086366;28;20188;-78
2023/09/15 07:23:15;;;;;;;9.10;7.70;;;21.50;80.50;20.90;96698.00;;;;5085256;28;20206;-78
2023/09/15 07:25:45;;;;;;;7.80;7.00;;;21.60;80.60;20.90;96698.00;;;;5082118;28;20219;-78
2023/09/15 07:28:13;;;;;;;7.70;6.93;;;21.60;80.50;20.90;96699.00;;;;5089642;28;20248;-78
2023/09/15 07:30:42;;;;;;;7.47;6.83;;;21.60;80.50;21.00;96695.00;;;;5068101;28;20199;-78
2023/09/15 07:33:09;;;;;;;8.57;7.67;;;21.60;80.50;21.00;96699.00;;;;5088092;28;20653;-78
2023/09/15 07:35:37;;;;;;;8.87;7.03;;;21.70;80.50;21.00;96698.00;;;;5077642;28;20692;-79
2023/09/15 07:38:05;;;;;;;7.83;7.03;;;21.70;80.30;21.10;96694.00;;;;5088112;28;20187;-78
2023/09/15 07:40:32;;;;;;;8.50;7.73;;;21.70;80.30;21.10;96697.00;;;;5081678;28;20202;-78
2023/09/15 07:43:00;;;;;;;7.97;7.27;;;21.70;80.60;21.10;96704.00;;;;5080271;28;20191;-78
2023/09/15 07:45:27;;;;;;;8.70;7.60;;;21.80;80.50;21.20;96708.00;;;;5083798;28;20227;-78
2023/09/15 07:47:55;;;;;;;7.73;7.03;;;21.80;80.50;21.20;96699.00;;;;5087409;28;20221;-78
2023/09/15 07:50:23;;;;;;;7.33;6.73;;;21.90;80.40;21.30;96704.00;;;;5091909;28;20274;-78
2023/09/15 07:52:50;;;;;;;8.13;7.33;;;21.90;80.40;21.30;96696.00;;;;5095221;28;20587;-78
2023/09/15 07:55:17;;;;;;;7.87;7.17;;;21.90;80.30;21.30;96699.00;;;;5092935;28;20230;-79
2023/09/15 07:57:45;;;;;;;8.50;7.80;;;22.00;80.20;21.40;96702.00;;;;5095200;28;20256;-78
2023/09/15 08:00:12;;;;;;;8.77;7.50;;;22.00;80.30;21.40;96701.00;;;;5089473;28;20191;-78
2023/09/15 08:02:40;;;;;;;8.30;7.33;;;22.00;80.20;21.40;96695.00;;;;5092514;28;20208;-78
2023/09/15 08:05:09;;;;;;;7.63;6.93;;;22.00;80.20;21.40;96699.00;;;;5079928;28;20244;-78
2023/09/15 08:07:37;;;;;;;7.33;6.67;;;22.10;80.10;21.50;96708.00;;;;5092435;28;20207;-78
2023/09/15 08:10:05;;;;;;;7.87;7.07;;;22.10;80.10;21.50;96707.00;;;;5090425;28;20198;-78
2023/09/15 08:12:32;;;;;;;7.10;6.50;;;22.10;80.20;21.50;96706.00;;;;5088784;28;20231;-78
2023/09/15 08:14:59;;;;;;;7.67;7.07;;;22.20;80.00;21.60;96716.00;;;;5095762;28;20214;-78
2023/09/15 08:17:26;;;;;;;7.83;7.13;;;22.20;80.00;21.60;96713.00;;;;5084817;28;20211;-78
2023/09/15 08:19:54;;;;;;;7.57;6.93;;;22.20;80.20;21.70;96718.00;;;;5096261;28;20195;-79
2023/09/15 08:22:23;;;;;;;7.20;6.60;;;22.30;80.10;21.70;96726.00;;;;5094225;28;20327;-78
2023/09/15 08:24:50;;;;;;;7.77;7.03;;;22.40;80.10;21.80;96722.00;;;;5087028;28;20193;-78
2023/09/15 08:27:17;;;;;;;7.83;7.13;;;22.40;80.20;21.90;96723.00;;;;5087643;28;20219;-78
2023/09/15 08:29:44;;;;;;;8.57;7.67;;;22.50;80.30;22.00;96719.00;;;;5093514;28;20678;-79
2023/09/15 08:32:14;;;;;;;7.90;7.20;;;22.50;80.20;22.10;96721.00;;;;5096442;28;20230;-79
2023/09/15 08:34:41;;;;;;;8.37;7.57;;;22.60;80.00;22.20;96722.00;;;;5096282;28;20254;-78
2023/09/15 08:37:09;;;;;;;7.97;7.13;;;22.70;79.70;22.30;96712.00;;;;5092034;28;20237;-78
2023/09/15 08:39:37;;;;;;;8.03;7.33;;;22.80;79.70;22.40;96706.00;;;;5090761;28;20616;-78
2023/09/15 08:42:13;;;;;;;8.27;7.57;;;22.80;79.30;22.50;96704.00;;;;5091436;28;20200;-78
2023/09/15 08:44:44;;;;;;;8.57;7.33;;;22.90;79.40;22.60;96708.00;;;;5094670;28;20289;-78
2023/09/15 08:47:12;;;;;;;8.07;6.57;;;23.00;79.50;22.70;96707.00;;;;5094995;28;20242;-78
2023/09/15 08:49:43;;;;;;;7.20;6.60;;;23.10;79.30;22.70;96704.00;;;;5091845;28;20194;-78
2023/09/15 08:52:11;;;;;;;6.07;5.57;;;23.20;79.40;22.90;96705.00;;;;5090887;28;20755;-78
2023/09/15 08:54:42;;;;;;;7.17;6.57;;;23.30;79.70;23.00;96708.00;;;;5092709;28;20206;-79
2023/09/15 08:57:09;;;;;;;7.10;6.50;;;23.40;79.30;23.10;96702.00;;;;5091103;28;20309;-79
2023/09/15 08:59:40;;;;;;;6.20;5.63;;;23.50;79.40;23.20;96703.00;;;;5093338;28;20187;-79
2023/09/15 09:02:11;;;;;;;6.43;5.93;;;23.60;78.90;23.30;96706.00;;;;5093442;28;20282;-79
2023/09/15 09:04:38;;;;;;;7.00;6.30;;;23.70;78.90;23.40;96702.00;;;;5089386;28;20196;-78
2023/09/15 09:07:07;;;;;;;6.67;6.10;;;23.80;78.70;23.50;96694.00;;;;5093575;28;20214;-78
2023/09/15 09:09:35;;;;;;;6.23;5.77;;;23.90;78.80;23.60;96698.00;;;;5089711;28;20188;-78
2023/09/15 09:12:04;;;;;;;5.60;5.20;;;24.00;78.60;23.70;96701.00;;;;5083915;28;20233;-79
2023/09/15 09:14:31;;;;;;;5.47;5.07;;;24.10;78.50;23.90;96702.00;;;;5083522;28;20200;-78
2023/09/15 09:17:01;;;;;;;5.10;4.70;;;24.20;78.30;24.00;96704.00;;;;5092224;28;20279;-79
2023/09/15 09:19:37;;;;;;;5.03;4.73;;;24.30;77.50;24.10;96704.00;;;;5088587;28;20274;-79
2023/09/15 09:22:07;;;;;;;4.47;4.17;;;24.50;77.10;24.20;96705.00;;;;5072603;28;20649;-79
2023/09/15 09:24:35;;;;;;;4.77;4.23;;;24.60;77.90;24.30;96697.00;;;;5088677;28;20671;-79
2023/09/15 09:27:10;;;;;;;4.30;4.00;;;24.70;77.80;24.50;96698.00;;;;5085386;28;20303;-78
2023/09/15 09:29:37;;;;;;;4.20;3.90;;;24.80;76.70;24.60;96695.00;;;;5087715;28;20202;-79
2023/09/15 09:32:06;;;;;;;4.70;4.30;;;24.90;77.30;24.70;96700.00;;;;5094630;28;20325;-78
2023/09/15 09:34:33;;;;;;;4.67;4.27;;;25.10;77.10;24.90;96694.00;;;;5094839;28;20274;-79
2023/09/15 09:37:00;;;;;;;4.50;4.20;;;25.20;76.90;25.00;96688.00;;;;5100430;28;20273;-79
2023/09/15 09:39:28;;;;;;;3.77;3.47;;;25.30;76.40;25.10;96696.00;;;;5099975;28;20236;-79
2023/09/15 09:41:56;;;;;;;3.97;3.67;;;25.40;76.50;25.20;96696.00;;;;5095898;28;20568;-79
2023/09/15 09:44:25;;;;;;;3.77;3.57;;;25.50;75.20;25.30;96694.00;;;;5087641;28;20274;-79
2023/09/15 09:46:54;;;;;;;3.27;2.97;;;25.60;74.00;25.40;96693.00;;;;5083292;28;20294;-79
2023/09/15 09:49:22;;;;;;;2.80;2.60;;;25.70;74.40;25.50;96686.00;;;;5091426;28;20203;-79
2023/09/15 09:51:52;;;;;;;2.40;2.30;;;25.80;73.50;25.60;96694.00;;;;5090252;28;20608;-79
2023/09/15 09:54:19;;;;;;;3.07;2.40;;;25.90;73.10;25.70;96693.00;;;;5071018;28;20212;-80
2023/09/15 09:56:50;;;;;;;2.63;2.43;;;26.00;73.30;25.80;96692.00;;;;5090873;28;20258;-79
2023/09/15 09:59:18;;;;;;;2.40;2.30;;;26.10;72.60;25.90;96698.00;;;;5088304;28;20833;-79
2023/09/15 10:01:47;;;;;;;2.03;1.93;;;26.20;73.00;26.00;96700.00;;;;5086661;28;20195;-79
2023/09/15 10:04:14;;;;;;;2.40;2.20;;;26.30;72.40;26.10;96688.00;;;;5089571;28;20227;-79
2023/09/15 10:06:42;;;;;;;2.10;2.00;;;26.40;72.00;26.20;96690.00;;;;5090095;28;20335;-79
2023/09/15 10:09:13;;;;;;;1.80;1.70;;;26.50;72.00;26.30;96688.00;;;;5095162;28;20187;-79
2023/09/15 10:11:41;;;;;;;2.03;1.70;;;26.60;72.00;26.30;96694.00;;;;5092209;28;20207;-79
2023/09/15 10:14:09;;;;;;;2.33;1.73;;;26.60;71.70;26.40;96698.00;;;;5084699;28;20221;-79
2023/09/15 10:16:37;;;;;;;4.15;2.20;;;26.70;71.50;26.50;96695.00;;;;5096086;28;20211;-79
2023/09/15 10:19:07;;;;;;;1.90;1.80;;;26.80;70.80;26.60;96693.00;;;;5091915;28;20282;-79
2023/09/15 10:21:36;;;;;;;2.22;2.13;;;26.90;70.30;26.70;96677.00;;;;5085648;28;20570;-79
2023/09/15 10:24:07;;;;;;;2.38;2.28;;;27.00;70.50;26.70;96684.00;;;;5095470;28;20202;-79
2023/09/15 10:26:35;;;;;;;2.30;2.20;;;27.00;70.10;26.80;96677.00;;;;5090907;28;20215;-78
2023/09/15 10:29:02;;;;;;;1.90;1.80;;;27.10;70.40;26.90;96672.00;;;;5095654;28;20214;-79
2023/09/15 10:31:32;;;;;;;2.00;1.67;;;27.20;70.30;27.00;96673.00;;;;5091172;28;20246;-79
2023/09/15 10:34:05;;;;;;;1.90;1.80;;;27.20;69.60;27.10;96675.00;;;;5094396;28;20280;-80
2023/09/15 10:36:34;;;;;;;2.35;2.17;;;27.40;69.20;27.10;96676.00;;;;5085806;28;20576;-80
2023/09/15 10:39:13;;;;;;;2.00;1.90;;;27.40;69.40;27.20;96673.00;;;;5090910;28;20226;-80
2023/09/15 10:41:40;;;;;;;1.90;1.80;;;27.50;68.30;27.30;96667.00;;;;5095885;28;20199;-80
2023/09/15 10:44:07;;;;;;;2.05;1.95;;;27.60;69.10;27.30;96666.00;;;;5094036;28;20278;-80
2023/09/15 10:46:37;;;;;;;1.95;1.85;;;27.60;68.60;27.40;96663.00;;;;5092485;28;20707;-80
2023/09/15 10:49:27;;;;;;;1.80;1.70;;;27.70;68.50;27.30;96668.00;;;;5089978;28;20195;-80
2023/09/15 10:51:57;;;;;;;1.83;1.73;;;27.70;65.80;27.30;96676.00;;;;5092627;28;20206;-80
2023/09/15 10:54:32;;;;;;;1.88;1.77;;;27.70;68.10;27.30;96664.00;;;;5096268;28;20738;-80
2023/09/15 10:57:01;;;;;;;1.65;1.55;;;27.70;67.20;27.30;96667.00;;;;5092554;28;20214;-80
2023/09/15 10:59:28;;;;;;;2.53;1.60;;;27.70;67.20;27.30;96677.00;;;;5091987;28;20255;-79
2023/09/15 11:01:59;;;;;;;1.65;1.55;;;27.70;66.90;27.30;96670.00;;;;5094464;28;20249;-80